Mabel, Minnesota
Current Conditions -  °F | °C
As of 9:55 PM on Tuesday 21 Oct 2014 (Local Time) from KDEH Reporting Station
Clear Clear  
Wind Chill: 39°   Ceiling: Unl
Heat Index: 43°   Visibility: 10mi
Dew Point: 37°   Wind: 7mph
Humidity: 81%   Direction: 130°SE
Pressure: 30.22"   Gusts: NA
Location:  43.52°N, 91.77°W
Report Text: KDEH 220255Z AUTO 13006KT 10SM CLR 06/03 A3022 RMK AO2
Loading
Personal Weather Stations






























Interactive Weather Map
Tropical Storm Tracking
New forecast layout! Learn more

10-Day Weather Forecast

Advertisements
Track Severe Weather on mobile